Unalaska, AK (99685)

7:58 PM AKDT on August 29, 2014 (GMT -0800)
Dutch Harbor | Change Station
CLOSE
Current Station
Airport
Location: Dutch Harbor,
Elevation: 13 ft
Nearby Weather Stations

Elev 13 ft 53.90 °N, 166.54 °W | Updated 45 minutes ago

Light Rain
Light Rain
55 °F
Feels Like 55 °F
N
0
Wind Variable Wind from North

Today
High -- | Low -- °F
--% Chance of Precip.
Yesterday
High -- | Low -- °F
Precip. -- in
8:10 AM 10:03 PM
Waxing Crescent, 18% visible
Pressure 29.72 in
Visibility 8.0 miles
Clouds Mostly Cloudy 1400 ft
Overcast 2000 ft
Dew Point 52 °F
Humidity 88%
Rainfall 0.00 in
Snow Depth Not available.
UV 1 out of 12
Pollen Not available.
Air Quality Not available.
Flu Activity Not available.
SPECI PADU 300313Z 00000KT 8SM -RA BKN014 OVC020 13/11 A2972 RMK AO2 RAB01 RH P0001

More Conditions Fewer Conditions

Pressure 29.72 in
Visibility 8.0 miles
Clouds Mostly Cloudy 1400 ft
Overcast 2000 ft
Dew Point 52 °F
Humidity 88%
Rainfall 0.00 in
Snow Depth Not available.
UV 1 out of 12
Pollen Not available.
Air Quality Not available.
Flu Activity Not available.
SPECI PADU 300313Z 00000KT 8SM -RA BKN014 OVC020 13/11 A2972 RMK AO2 RAB01 RH P0001

More Conditions Fewer Conditions

10-Day Weather Forecast

Almanac

Astronomy

Aug. 29, 2014 Rise Set
Actual Time 8:10 AM AKDT 10:03 PM AKDT
Civil Twilight 7:32 AM AKDT 10:41 PM AKDT
Nautical Twilight 6:46 AM AKDT 11:27 PM AKDT
Astronomical Twilight 5:52 AM AKDT 12:20 AM AKDT
Moon 12:54 PM AKDT (8/29) 11:24 PM AKDT (8/29)
Length of Visible Light 15h 08m
Length of Day
13h 53m
Tomorrow will be 4m 9s shorter.
Waxing Crescent, 18% of the Moon is Illuminated
Today
Waxing Crescent
Sep 2
First Quarter
Sep 8
Full
Sep 15
Last Quarter
Sep 24
New

Today's Extremes

State Highs State Lows

Community

WunderPhotos

Upload Photos

1,748,437 photos uploaded!

Nearby

Snow Depth

Station Depth Elevation
Mcneil Canyon 1 in 1320 ft
MF Bradley River 2 in 2300 ft
Rocky Point 5 in 500 ft
Cooper Lake 16 in 1200 ft
Grouse Creek Divide 0 in 700 ft

Earthquake Activity

City Distance Mag. Time & Date
No recent earthquake activity has been reported nearby.
Minimum magnitude displayed is 2.5.

Coastal Water Temperatures

Place Temperature
No Stations Reporting

Nearby Weather Stations